sensor_id;sensor_type;location;lat;lon;timestamp;temperature;humidity
8338;DHT22;4206;48.634;9.516;2022-08-01T00:01:01;21.20;99.90
8338;DHT22;4206;48.634;9.516;2022-08-01T00:03:26;21.10;99.90
8338;DHT22;4206;48.634;9.516;2022-08-01T00:05:52;21.10;99.90
8338;DHT22;4206;48.634;9.516;2022-08-01T00:08:17;21.10;99.90
8338;DHT22;4206;48.634;9.516;2022-08-01T00:10:43;21.10;99.90
8338;DHT22;4206;48.634;9.516;2022-08-01T00:13:09;21.10;99.90
8338;DHT22;4206;48.634;9.516;2022-08-01T00:15:35;21.00;99.90
8338;DHT22;4206;48.634;9.516;2022-08-01T00:18:00;20.90;99.90
8338;DHT22;4206;48.634;9.516;2022-08-01T00:20:26;20.90;99.90
8338;DHT22;4206;48.634;9.516;2022-08-01T00:22:52;20.90;99.90
8338;DHT22;4206;48.634;9.516;2022-08-01T00:25:18;20.90;99.90
8338;DHT22;4206;48.634;9.516;2022-08-01T00:27:43;20.80;99.90
8338;DHT22;4206;48.634;9.516;2022-08-01T00:30:09;20.80;99.90
8338;DHT22;4206;48.634;9.516;2022-08-01T00:32:35;20.80;99.90
8338;DHT22;4206;48.634;9.516;2022-08-01T00:35:00;20.80;99.90
8338;DHT22;4206;48.634;9.516;2022-08-01T00:37:26;20.80;99.90
8338;DHT22;4206;48.634;9.516;2022-08-01T00:39:52;20.90;99.90
8338;DHT22;4206;48.634;9.516;2022-08-01T00:42:18;20.90;99.90
8338;DHT22;4206;48.634;9.516;2022-08-01T00:44:43;20.90;99.90
8338;DHT22;4206;48.634;9.516;2022-08-01T00:47:09;20.80;99.90
8338;DHT22;4206;48.634;9.516;2022-08-01T00:49:35;20.80;99.90
8338;DHT22;4206;48.634;9.516;2022-08-01T00:52:03;20.80;99.90
8338;DHT22;4206;48.634;9.516;2022-08-01T00:54:31;20.80;99.90
8338;DHT22;4206;48.634;9.516;2022-08-01T00:56:57;20.70;99.90
8338;DHT22;4206;48.634;9.516;2022-08-01T00:59:24;20.70;99.90
8338;DHT22;4206;48.634;9.516;2022-08-01T01:01:51;20.70;99.90
8338;DHT22;4206;48.634;9.516;2022-08-01T01:04:17;20.60;99.90
8338;DHT22;4206;48.634;9.516;2022-08-01T01:07:03;20.60;99.90
8338;DHT22;4206;48.634;9.516;2022-08-01T01:20:14;20.70;99.90
8338;DHT22;4206;48.634;9.516;2022-08-01T01:25:52;20.60;99.90
8338;DHT22;4206;48.634;9.516;2022-08-01T01:30:51;20.60;99.90
8338;DHT22;4206;48.634;9.516;2022-08-01T01:33:19;20.60;99.90
8338;DHT22;4206;48.634;9.516;2022-08-01T01:35:48;20.50;99.90
8338;DHT22;4206;48.634;9.516;2022-08-01T01:38:20;20.50;99.90
8338;DHT22;4206;48.634;9.516;2022-08-01T01:40:47;20.50;99.90
8338;DHT22;4206;48.634;9.516;2022-08-01T01:43:15;20.50;99.90
8338;DHT22;4206;48.634;9.516;2022-08-01T01:45:42;20.50;99.90
8338;DHT22;4206;48.634;9.516;2022-08-01T01:48:10;20.40;99.90
8338;DHT22;4206;48.634;9.516;2022-08-01T01:50:36;20.40;99.90
8338;DHT22;4206;48.634;9.516;2022-08-01T01:53:04;20.40;99.90
8338;DHT22;4206;48.634;9.516;2022-08-01T01:55:31;20.30;99.90
8338;DHT22;4206;48.634;9.516;2022-08-01T01:57:58;20.30;99.90
8338;DHT22;4206;48.634;9.516;2022-08-01T02:00:25;20.20;99.90
8338;DHT22;4206;48.634;9.516;2022-08-01T02:02:54;20.20;99.90
8338;DHT22;4206;48.634;9.516;2022-08-01T02:05:22;20.20;99.90
8338;DHT22;4206;48.634;9.516;2022-08-01T02:07:50;20.20;99.90
8338;DHT22;4206;48.634;9.516;2022-08-01T02:10:17;20.10;99.90
8338;DHT22;4206;48.634;9.516;2022-08-01T02:12:44;20.10;99.90
8338;DHT22;4206;48.634;9.516;2022-08-01T02:15:12;20.10;99.90
8338;DHT22;4206;48.634;9.516;2022-08-01T02:17:44;20.10;99.90
8338;DHT22;4206;48.634;9.516;2022-08-01T02:20:13;20.10;99.90
8338;DHT22;4206;48.634;9.516;2022-08-01T02:22:46;20.00;99.90
8338;DHT22;4206;48.634;9.516;2022-08-01T02:28:11;20.00;99.90
8338;DHT22;4206;48.634;9.516;2022-08-01T02:30:41;20.00;99.90
8338;DHT22;4206;48.634;9.516;2022-08-01T02:35:44;19.90;99.90
8338;DHT22;4206;48.634;9.516;2022-08-01T02:38:12;19.90;99.90
8338;DHT22;4206;48.634;9.516;2022-08-01T02:40:42;19.90;99.90
8338;DHT22;4206;48.634;9.516;2022-08-01T02:43:10;19.80;99.90
8338;DHT22;4206;48.634;9.516;2022-08-01T02:45:41;19.80;99.90
8338;DHT22;4206;48.634;9.516;2022-08-01T02:48:11;19.80;99.90
8338;DHT22;4206;48.634;9.516;2022-08-01T02:50:39;19.80;99.90
8338;DHT22;4206;48.634;9.516;2022-08-01T02:53:08;19.80;99.90
8338;DHT22;4206;48.634;9.516;2022-08-01T02:55:38;19.70;99.90
8338;DHT22;4206;48.634;9.516;2022-08-01T02:58:07;19.70;99.90
8338;DHT22;4206;48.634;9.516;2022-08-01T03:00:34;19.60;99.90
8338;DHT22;4206;48.634;9.516;2022-08-01T03:03:01;19.60;99.90
8338;DHT22;4206;48.634;9.516;2022-08-01T03:05:29;19.50;99.90
8338;DHT22;4206;48.634;9.516;2022-08-01T03:07:58;19.50;99.90
8338;DHT22;4206;48.634;9.516;2022-08-01T03:10:27;19.40;99.90
8338;DHT22;4206;48.634;9.516;2022-08-01T03:12:53;19.40;99.90
8338;DHT22;4206;48.634;9.516;2022-08-01T03:15:23;19.40;99.90
8338;DHT22;4206;48.634;9.516;2022-08-01T03:17:51;19.40;99.90
8338;DHT22;4206;48.634;9.516;2022-08-01T03:20:18;19.30;99.90
8338;DHT22;4206;48.634;9.516;2022-08-01T03:22:48;19.30;99.90
8338;DHT22;4206;48.634;9.516;2022-08-01T03:25:16;19.20;99.90
8338;DHT22;4206;48.634;9.516;2022-08-01T03:27:42;19.20;99.90
8338;DHT22;4206;48.634;9.516;2022-08-01T03:30:09;19.20;99.90
8338;DHT22;4206;48.634;9.516;2022-08-01T03:32:36;19.20;99.90
8338;DHT22;4206;48.634;9.516;2022-08-01T03:35:02;19.20;99.90
8338;DHT22;4206;48.634;9.516;2022-08-01T03:37:38;19.20;99.90
8338;DHT22;4206;48.634;9.516;2022-08-01T03:40:11;19.20;99.90
8338;DHT22;4206;48.634;9.516;2022-08-01T03:42:44;19.20;99.90
8338;DHT22;4206;48.634;9.516;2022-08-01T03:45:14;19.10;99.90
8338;DHT22;4206;48.634;9.516;2022-08-01T03:47:43;19.00;99.90
8338;DHT22;4206;48.634;9.516;2022-08-01T03:50:10;18.90;99.90
8338;DHT22;4206;48.634;9.516;2022-08-01T03:52:39;18.80;99.90
8338;DHT22;4206;48.634;9.516;2022-08-01T03:55:06;18.70;99.90
8338;DHT22;4206;48.634;9.516;2022-08-01T03:57:33;18.60;99.90
8338;DHT22;4206;48.634;9.516;2022-08-01T04:00:00;18.50;99.90
8338;DHT22;4206;48.634;9.516;2022-08-01T04:02:27;18.40;99.90
8338;DHT22;4206;48.634;9.516;2022-08-01T04:04:54;18.30;99.90
8338;DHT22;4206;48.634;9.516;2022-08-01T04:07:23;18.30;99.90
8338;DHT22;4206;48.634;9.516;2022-08-01T04:09:49;18.30;99.90
8338;DHT22;4206;48.634;9.516;2022-08-01T04:12:15;18.20;99.90
8338;DHT22;4206;48.634;9.516;2022-08-01T04:14:40;18.20;99.90
8338;DHT22;4206;48.634;9.516;2022-08-01T04:17:06;18.20;99.90
8338;DHT22;4206;48.634;9.516;2022-08-01T04:19:32;18.10;99.90
8338;DHT22;4206;48.634;9.516;2022-08-01T04:21:57;18.10;99.90
8338;DHT22;4206;48.634;9.516;2022-08-01T04:24:24;18.00;99.90
8338;DHT22;4206;48.634;9.516;2022-08-01T04:26:53;18.00;99.90
8338;DHT22;4206;48.634;9.516;2022-08-01T04:29:20;18.00;99.90
8338;DHT22;4206;48.634;9.516;2022-08-01T04:31:47;18.10;99.90
8338;DHT22;4206;48.634;9.516;2022-08-01T04:34:16;18.10;99.90
8338;DHT22;4206;48.634;9.516;2022-08-01T04:36:43;18.10;99.90
8338;DHT22;4206;48.634;9.516;2022-08-01T04:39:09;18.10;99.90
8338;DHT22;4206;48.634;9.516;2022-08-01T04:41:37;18.10;99.90
8338;DHT22;4206;48.634;9.516;2022-08-01T04:44:04;18.10;99.90
8338;DHT22;4206;48.634;9.516;2022-08-01T04:46:31;18.10;99.90
8338;DHT22;4206;48.634;9.516;2022-08-01T04:48:57;18.20;99.90
8338;DHT22;4206;48.634;9.516;2022-08-01T04:51:24;18.20;99.90
8338;DHT22;4206;48.634;9.516;2022-08-01T04:53:50;18.20;99.90
8338;DHT22;4206;48.634;9.516;2022-08-01T04:56:17;18.30;99.90
8338;DHT22;4206;48.634;9.516;2022-08-01T04:58:43;18.30;99.90
8338;DHT22;4206;48.634;9.516;2022-08-01T05:01:09;18.30;99.90
8338;DHT22;4206;48.634;9.516;2022-08-01T05:03:35;18.40;99.90
8338;DHT22;4206;48.634;9.516;2022-08-01T05:06:01;18.40;99.90
8338;DHT22;4206;48.634;9.516;2022-08-01T05:08:27;18.40;99.90
8338;DHT22;4206;48.634;9.516;2022-08-01T05:10:52;18.40;99.90
8338;DHT22;4206;48.634;9.516;2022-08-01T05:13:19;18.40;99.90
8338;DHT22;4206;48.634;9.516;2022-08-01T05:15:44;18.40;99.90
8338;DHT22;4206;48.634;9.516;2022-08-01T05:18:10;18.40;99.90
8338;DHT22;4206;48.634;9.516;2022-08-01T05:20:36;18.50;99.90
8338;DHT22;4206;48.634;9.516;2022-08-01T05:23:03;18.40;99.90
8338;DHT22;4206;48.634;9.516;2022-08-01T05:25:29;18.50;99.90
8338;DHT22;4206;48.634;9.516;2022-08-01T05:27:54;18.50;99.90
8338;DHT22;4206;48.634;9.516;2022-08-01T05:30:20;18.50;99.90
8338;DHT22;4206;48.634;9.516;2022-08-01T05:32:46;18.50;99.90
8338;DHT22;4206;48.634;9.516;2022-08-01T05:35:11;18.60;99.90
8338;DHT22;4206;48.634;9.516;2022-08-01T05:37:37;18.60;99.90
8338;DHT22;4206;48.634;9.516;2022-08-01T05:40:04;18.60;99.90
8338;DHT22;4206;48.634;9.516;2022-08-01T05:42:30;18.60;99.90
8338;DHT22;4206;48.634;9.516;2022-08-01T05:44:55;18.70;99.90
8338;DHT22;4206;48.634;9.516;2022-08-01T05:47:21;18.90;99.90
8338;DHT22;4206;48.634;9.516;2022-08-01T05:49:47;18.90;99.90
8338;DHT22;4206;48.634;9.516;2022-08-01T05:52:13;19.00;99.90
8338;DHT22;4206;48.634;9.516;2022-08-01T05:54:39;19.10;99.90
8338;DHT22;4206;48.634;9.516;2022-08-01T05:57:05;19.20;99.90
8338;DHT22;4206;48.634;9.516;2022-08-01T05:59:31;19.40;99.90
8338;DHT22;4206;48.634;9.516;2022-08-01T06:01:57;19.50;99.90
8338;DHT22;4206;48.634;9.516;2022-08-01T06:04:22;19.80;99.90
8338;DHT22;4206;48.634;9.516;2022-08-01T06:06:48;20.00;99.90
8338;DHT22;4206;48.634;9.516;2022-08-01T06:09:14;20.20;99.90
8338;DHT22;4206;48.634;9.516;2022-08-01T06:11:40;20.50;99.90
8338;DHT22;4206;48.634;9.516;2022-08-01T06:14:06;20.70;99.90
8338;DHT22;4206;48.634;9.516;2022-08-01T06:16:32;21.00;99.90
8338;DHT22;4206;48.634;9.516;2022-08-01T06:18:57;21.10;99.90
8338;DHT22;4206;48.634;9.516;2022-08-01T06:21:23;21.40;99.90
8338;DHT22;4206;48.634;9.516;2022-08-01T06:23:49;21.70;99.90
8338;DHT22;4206;48.634;9.516;2022-08-01T06:26:17;22.00;99.90
8338;DHT22;4206;48.634;9.516;2022-08-01T06:28:43;22.10;99.90
8338;DHT22;4206;48.634;9.516;2022-08-01T06:31:09;22.20;99.90
8338;DHT22;4206;48.634;9.516;2022-08-01T06:33:36;22.40;99.90
8338;DHT22;4206;48.634;9.516;2022-08-01T06:36:03;22.40;99.90
8338;DHT22;4206;48.634;9.516;2022-08-01T06:38:28;22.60;99.90
8338;DHT22;4206;48.634;9.516;2022-08-01T06:40:54;22.70;99.90
8338;DHT22;4206;48.634;9.516;2022-08-01T06:43:20;22.80;99.90
8338;DHT22;4206;48.634;9.516;2022-08-01T06:45:46;22.90;99.90
8338;DHT22;4206;48.634;9.516;2022-08-01T06:48:12;23.10;99.90
8338;DHT22;4206;48.634;9.516;2022-08-01T06:50:38;23.20;99.90
8338;DHT22;4206;48.634;9.516;2022-08-01T06:53:03;23.40;99.90
8338;DHT22;4206;48.634;9.516;2022-08-01T06:55:29;23.60;99.90
8338;DHT22;4206;48.634;9.516;2022-08-01T06:57:55;23.70;99.90
8338;DHT22;4206;48.634;9.516;2022-08-01T07:00:22;23.90;99.90
8338;DHT22;4206;48.634;9.516;2022-08-01T07:02:50;24.00;99.90
8338;DHT22;4206;48.634;9.516;2022-08-01T07:05:15;24.10;99.90
8338;DHT22;4206;48.634;9.516;2022-08-01T07:07:41;24.50;99.90
8338;DHT22;4206;48.634;9.516;2022-08-01T07:10:07;24.60;99.90
8338;DHT22;4206;48.634;9.516;2022-08-01T07:12:34;24.80;99.90
8338;DHT22;4206;48.634;9.516;2022-08-01T07:15:03;24.90;99.90
8338;DHT22;4206;48.634;9.516;2022-08-01T07:17:29;24.80;99.90
8338;DHT22;4206;48.634;9.516;2022-08-01T07:19:55;24.60;99.90
8338;DHT22;4206;48.634;9.516;2022-08-01T07:22:20;24.70;99.90
8338;DHT22;4206;48.634;9.516;2022-08-01T07:24:46;24.80;99.90
8338;DHT22;4206;48.634;9.516;2022-08-01T07:27:12;24.60;99.90
8338;DHT22;4206;48.634;9.516;2022-08-01T07:29:37;24.60;99.90
8338;DHT22;4206;48.634;9.516;2022-08-01T07:32:03;24.70;99.90
8338;DHT22;4206;48.634;9.516;2022-08-01T07:34:29;24.80;99.90
8338;DHT22;4206;48.634;9.516;2022-08-01T07:36:55;25.10;99.90
8338;DHT22;4206;48.634;9.516;2022-08-01T07:39:20;25.30;99.90
8338;DHT22;4206;48.634;9.516;2022-08-01T07:41:46;25.10;99.90
8338;DHT22;4206;48.634;9.516;2022-08-01T07:44:12;25.20;99.90
8338;DHT22;4206;48.634;9.516;2022-08-01T07:46:37;25.50;99.90
8338;DHT22;4206;48.634;9.516;2022-08-01T07:49:03;25.60;99.90
8338;DHT22;4206;48.634;9.516;2022-08-01T07:51:29;25.80;99.90
8338;DHT22;4206;48.634;9.516;2022-08-01T07:53:54;26.20;99.90
8338;DHT22;4206;48.634;9.516;2022-08-01T07:56:20;26.30;99.90
8338;DHT22;4206;48.634;9.516;2022-08-01T07:58:49;26.40;99.90
8338;DHT22;4206;48.634;9.516;2022-08-01T08:01:15;26.50;99.90
8338;DHT22;4206;48.634;9.516;2022-08-01T08:03:40;26.60;99.90
8338;DHT22;4206;48.634;9.516;2022-08-01T08:06:06;26.90;99.90
8338;DHT22;4206;48.634;9.516;2022-08-01T08:08:32;26.90;99.90
8338;DHT22;4206;48.634;9.516;2022-08-01T08:11:00;27.00;99.90
8338;DHT22;4206;48.634;9.516;2022-08-01T08:13:26;27.00;99.90
8338;DHT22;4206;48.634;9.516;2022-08-01T08:15:51;27.20;99.90
8338;DHT22;4206;48.634;9.516;2022-08-01T08:18:18;27.70;99.90
8338;DHT22;4206;48.634;9.516;2022-08-01T08:20:44;27.70;99.90
8338;DHT22;4206;48.634;9.516;2022-08-01T08:23:10;27.90;99.90
8338;DHT22;4206;48.634;9.516;2022-08-01T08:25:51;28.00;99.90
8338;DHT22;4206;48.634;9.516;2022-08-01T08:28:16;27.80;99.90
8338;DHT22;4206;48.634;9.516;2022-08-01T08:30:42;28.20;99.90
8338;DHT22;4206;48.634;9.516;2022-08-01T08:33:07;28.60;99.90
8338;DHT22;4206;48.634;9.516;2022-08-01T08:35:33;29.00;99.90
8338;DHT22;4206;48.634;9.516;2022-08-01T08:37:59;29.60;99.90
8338;DHT22;4206;48.634;9.516;2022-08-01T08:40:29;30.30;99.90
8338;DHT22;4206;48.634;9.516;2022-08-01T08:42:56;30.20;99.90
8338;DHT22;4206;48.634;9.516;2022-08-01T08:45:22;30.40;99.90
8338;DHT22;4206;48.634;9.516;2022-08-01T08:47:48;31.20;99.90
8338;DHT22;4206;48.634;9.516;2022-08-01T08:50:15;30.90;99.50
8338;DHT22;4206;48.634;9.516;2022-08-01T08:52:43;31.00;98.20
8338;DHT22;4206;48.634;9.516;2022-08-01T08:55:11;30.60;97.80
8338;DHT22;4206;48.634;9.516;2022-08-01T08:57:39;30.70;97.90
8338;DHT22;4206;48.634;9.516;2022-08-01T09:00:06;31.80;96.50
8338;DHT22;4206;48.634;9.516;2022-08-01T09:02:32;32.70;96.20
8338;DHT22;4206;48.634;9.516;2022-08-01T09:04:57;33.30;93.90
8338;DHT22;4206;48.634;9.516;2022-08-01T09:07:23;34.00;94.40
8338;DHT22;4206;48.634;9.516;2022-08-01T09:09:51;33.80;93.40
8338;DHT22;4206;48.634;9.516;2022-08-01T09:12:18;34.40;92.40
8338;DHT22;4206;48.634;9.516;2022-08-01T09:14:45;35.10;91.70
8338;DHT22;4206;48.634;9.516;2022-08-01T09:17:11;35.60;91.00
8338;DHT22;4206;48.634;9.516;2022-08-01T09:19:41;35.70;90.60
8338;DHT22;4206;48.634;9.516;2022-08-01T09:22:12;34.80;88.20
8338;DHT22;4206;48.634;9.516;2022-08-01T09:24:39;34.30;91.20
8338;DHT22;4206;48.634;9.516;2022-08-01T09:27:20;33.40;89.60
8338;DHT22;4206;48.634;9.516;2022-08-01T09:29:50;33.40;90.00
8338;DHT22;4206;48.634;9.516;2022-08-01T09:32:16;33.40;90.60
8338;DHT22;4206;48.634;9.516;2022-08-01T09:34:42;33.20;89.30
8338;DHT22;4206;48.634;9.516;2022-08-01T09:37:07;33.20;91.20
8338;DHT22;4206;48.634;9.516;2022-08-01T09:39:35;34.40;89.40
8338;DHT22;4206;48.634;9.516;2022-08-01T09:42:23;32.90;90.30
8338;DHT22;4206;48.634;9.516;2022-08-01T09:44:52;33.20;90.30
8338;DHT22;4206;48.634;9.516;2022-08-01T09:47:19;32.70;90.50
8338;DHT22;4206;48.634;9.516;2022-08-01T09:49:53;32.80;90.50
8338;DHT22;4206;48.634;9.516;2022-08-01T09:52:21;35.00;87.70
8338;DHT22;4206;48.634;9.516;2022-08-01T09:54:56;35.40;87.40
8338;DHT22;4206;48.634;9.516;2022-08-01T09:57:22;36.10;86.40
8338;DHT22;4206;48.634;9.516;2022-08-01T09:59:50;35.60;83.40
8338;DHT22;4206;48.634;9.516;2022-08-01T10:02:36;34.70;85.70
8338;DHT22;4206;48.634;9.516;2022-08-01T10:05:05;34.50;85.40
8338;DHT22;4206;48.634;9.516;2022-08-01T10:07:56;35.10;83.40
8338;DHT22;4206;48.634;9.516;2022-08-01T10:10:21;34.50;84.10
8338;DHT22;4206;48.634;9.516;2022-08-01T10:12:47;34.50;87.30
8338;DHT22;4206;48.634;9.516;2022-08-01T10:15:15;34.40;85.20
8338;DHT22;4206;48.634;9.516;2022-08-01T10:17:52;36.10;85.00
8338;DHT22;4206;48.634;9.516;2022-08-01T10:20:20;35.70;81.20
8338;DHT22;4206;48.634;9.516;2022-08-01T10:22:46;33.80;83.20
8338;DHT22;4206;48.634;9.516;2022-08-01T10:25:13;33.50;86.60
8338;DHT22;4206;48.634;9.516;2022-08-01T10:27:43;34.30;84.80
8338;DHT22;4206;48.634;9.516;2022-08-01T10:30:12;34.60;84.80
8338;DHT22;4206;48.634;9.516;2022-08-01T10:32:39;34.50;85.00
8338;DHT22;4206;48.634;9.516;2022-08-01T10:35:08;33.10;87.20
8338;DHT22;4206;48.634;9.516;2022-08-01T10:37:35;32.40;89.10
8338;DHT22;4206;48.634;9.516;2022-08-01T10:40:02;31.50;90.90
8338;DHT22;4206;48.634;9.516;2022-08-01T10:42:30;31.30;91.30
8338;DHT22;4206;48.634;9.516;2022-08-01T10:44:56;32.20;90.60
8338;DHT22;4206;48.634;9.516;2022-08-01T10:47:27;33.00;88.90
8338;DHT22;4206;48.634;9.516;2022-08-01T10:50:13;33.10;86.10
8338;DHT22;4206;48.634;9.516;2022-08-01T10:52:41;32.40;89.00
8338;DHT22;4206;48.634;9.516;2022-08-01T10:55:08;32.20;90.00
8338;DHT22;4206;48.634;9.516;2022-08-01T10:57:44;31.80;90.60
8338;DHT22;4206;48.634;9.516;2022-08-01T11:00:17;32.60;90.90
8338;DHT22;4206;48.634;9.516;2022-08-01T11:02:57;32.70;90.10
8338;DHT22;4206;48.634;9.516;2022-08-01T11:05:27;33.30;88.70
8338;DHT22;4206;48.634;9.516;2022-08-01T11:07:54;33.10;88.40
8338;DHT22;4206;48.634;9.516;2022-08-01T11:10:37;32.20;87.40
8338;DHT22;4206;48.634;9.516;2022-08-01T11:13:03;31.40;90.80
8338;DHT22;4206;48.634;9.516;2022-08-01T11:15:33;31.00;90.90
8338;DHT22;4206;48.634;9.516;2022-08-01T11:18:02;30.60;90.60
8338;DHT22;4206;48.634;9.516;2022-08-01T11:20:32;30.60;90.60
8338;DHT22;4206;48.634;9.516;2022-08-01T11:25:27;29.50;93.90
8338;DHT22;4206;48.634;9.516;2022-08-01T11:30:41;28.90;95.60
8338;DHT22;4206;48.634;9.516;2022-08-01T11:33:07;29.60;94.90
8338;DHT22;4206;48.634;9.516;2022-08-01T11:35:35;30.70;93.50
8338;DHT22;4206;48.634;9.516;2022-08-01T11:38:24;32.10;92.70
8338;DHT22;4206;48.634;9.516;2022-08-01T11:41:12;34.20;90.80
8338;DHT22;4206;48.634;9.516;2022-08-01T11:44:02;34.20;87.20
8338;DHT22;4206;48.634;9.516;2022-08-01T11:54:27;31.70;90.80
8338;DHT22;4206;48.634;9.516;2022-08-01T11:56:57;30.90;92.00
8338;DHT22;4206;48.634;9.516;2022-08-01T11:59:22;30.30;92.30
8338;DHT22;4206;48.634;9.516;2022-08-01T12:01:49;29.90;92.20
8338;DHT22;4206;48.634;9.516;2022-08-01T12:04:14;29.30;93.60
8338;DHT22;4206;48.634;9.516;2022-08-01T12:06:40;29.00;94.30
8338;DHT22;4206;48.634;9.516;2022-08-01T12:09:21;28.80;94.70
8338;DHT22;4206;48.634;9.516;2022-08-01T12:11:48;28.90;94.30
8338;DHT22;4206;48.634;9.516;2022-08-01T12:14:17;28.80;94.80
8338;DHT22;4206;48.634;9.516;2022-08-01T12:16:58;28.60;95.00
8338;DHT22;4206;48.634;9.516;2022-08-01T12:19:24;28.70;95.30
8338;DHT22;4206;48.634;9.516;2022-08-01T12:24:33;28.50;94.70
8338;DHT22;4206;48.634;9.516;2022-08-01T12:26:59;28.40;95.40
8338;DHT22;4206;48.634;9.516;2022-08-01T12:29:41;28.60;96.10
8338;DHT22;4206;48.634;9.516;2022-08-01T12:34:50;28.80;96.00
8338;DHT22;4206;48.634;9.516;2022-08-01T12:37:17;28.70;96.00
8338;DHT22;4206;48.634;9.516;2022-08-01T12:39:43;28.80;94.70
8338;DHT22;4206;48.634;9.516;2022-08-01T12:42:09;29.00;94.50
8338;DHT22;4206;48.634;9.516;2022-08-01T12:44:36;28.80;95.20
8338;DHT22;4206;48.634;9.516;2022-08-01T12:47:05;28.80;96.00
8338;DHT22;4206;48.634;9.516;2022-08-01T12:49:32;28.80;96.50
8338;DHT22;4206;48.634;9.516;2022-08-01T12:51:58;28.70;97.00
8338;DHT22;4206;48.634;9.516;2022-08-01T12:54:24;28.80;96.20
8338;DHT22;4206;48.634;9.516;2022-08-01T12:56:51;28.80;95.60
8338;DHT22;4206;48.634;9.516;2022-08-01T12:59:22;28.80;96.30
8338;DHT22;4206;48.634;9.516;2022-08-01T13:01:52;29.00;95.00
8338;DHT22;4206;48.634;9.516;2022-08-01T13:04:18;29.20;95.20
8338;DHT22;4206;48.634;9.516;2022-08-01T13:06:44;29.10;95.10
8338;DHT22;4206;48.634;9.516;2022-08-01T13:09:11;28.90;95.80
8338;DHT22;4206;48.634;9.516;2022-08-01T13:11:40;28.80;95.50
8338;DHT22;4206;48.634;9.516;2022-08-01T13:14:06;28.60;96.40
8338;DHT22;4206;48.634;9.516;2022-08-01T13:16:32;28.70;96.00
8338;DHT22;4206;48.634;9.516;2022-08-01T13:19:10;28.80;95.60
8338;DHT22;4206;48.634;9.516;2022-08-01T13:21:36;30.20;94.10
8338;DHT22;4206;48.634;9.516;2022-08-01T13:24:22;32.00;91.90
8338;DHT22;4206;48.634;9.516;2022-08-01T13:26:52;33.80;90.30
8338;DHT22;4206;48.634;9.516;2022-08-01T13:29:21;34.80;86.50
8338;DHT22;4206;48.634;9.516;2022-08-01T13:34:14;36.30;81.60
8338;DHT22;4206;48.634;9.516;2022-08-01T13:36:40;37.10;83.00
8338;DHT22;4206;48.634;9.516;2022-08-01T13:39:07;38.40;77.90
8338;DHT22;4206;48.634;9.516;2022-08-01T13:41:48;38.70;75.90
8338;DHT22;4206;48.634;9.516;2022-08-01T13:44:14;38.10;75.30
8338;DHT22;4206;48.634;9.516;2022-08-01T13:46:41;38.30;73.90
8338;DHT22;4206;48.634;9.516;2022-08-01T13:49:09;36.70;76.60
8338;DHT22;4206;48.634;9.516;2022-08-01T13:51:35;37.00;78.10
8338;DHT22;4206;48.634;9.516;2022-08-01T13:54:01;36.30;79.50
8338;DHT22;4206;48.634;9.516;2022-08-01T13:56:27;36.30;78.60
8338;DHT22;4206;48.634;9.516;2022-08-01T13:58:54;35.90;77.90
8338;DHT22;4206;48.634;9.516;2022-08-01T14:01:20;35.20;79.70
8338;DHT22;4206;48.634;9.516;2022-08-01T14:03:46;34.60;79.50
8338;DHT22;4206;48.634;9.516;2022-08-01T14:06:12;34.30;79.00
8338;DHT22;4206;48.634;9.516;2022-08-01T14:08:39;33.40;82.30
8338;DHT22;4206;48.634;9.516;2022-08-01T14:11:05;32.70;85.30
8338;DHT22;4206;48.634;9.516;2022-08-01T14:13:31;32.20;87.00
8338;DHT22;4206;48.634;9.516;2022-08-01T14:15:58;31.80;86.70
8338;DHT22;4206;48.634;9.516;2022-08-01T14:18:25;31.40;88.10
8338;DHT22;4206;48.634;9.516;2022-08-01T14:20:51;31.10;88.80
8338;DHT22;4206;48.634;9.516;2022-08-01T14:23:17;30.60;90.60
8338;DHT22;4206;48.634;9.516;2022-08-01T14:25:43;30.40;90.60
8338;DHT22;4206;48.634;9.516;2022-08-01T14:28:09;30.30;90.60
8338;DHT22;4206;48.634;9.516;2022-08-01T14:30:36;30.50;91.20
8338;DHT22;4206;48.634;9.516;2022-08-01T14:33:02;31.00;91.60
8338;DHT22;4206;48.634;9.516;2022-08-01T14:35:27;31.40;91.20
8338;DHT22;4206;48.634;9.516;2022-08-01T14:37:53;31.60;90.40
8338;DHT22;4206;48.634;9.516;2022-08-01T14:40:19;31.70;90.60
8338;DHT22;4206;48.634;9.516;2022-08-01T14:42:44;31.90;90.20
8338;DHT22;4206;48.634;9.516;2022-08-01T14:45:12;32.10;90.00
8338;DHT22;4206;48.634;9.516;2022-08-01T14:47:39;31.80;90.00
8338;DHT22;4206;48.634;9.516;2022-08-01T14:50:07;31.80;89.40
8338;DHT22;4206;48.634;9.516;2022-08-01T14:52:34;31.40;89.90
8338;DHT22;4206;48.634;9.516;2022-08-01T14:55:01;30.80;89.80
8338;DHT22;4206;48.634;9.516;2022-08-01T14:57:27;30.70;90.20
8338;DHT22;4206;48.634;9.516;2022-08-01T14:59:52;30.30;90.60
8338;DHT22;4206;48.634;9.516;2022-08-01T15:02:18;30.00;90.90
8338;DHT22;4206;48.634;9.516;2022-08-01T15:04:45;29.70;91.20
8338;DHT22;4206;48.634;9.516;2022-08-01T15:07:11;29.40;90.90
8338;DHT22;4206;48.634;9.516;2022-08-01T15:09:37;29.20;91.10
8338;DHT22;4206;48.634;9.516;2022-08-01T15:12:03;28.90;91.50
8338;DHT22;4206;48.634;9.516;2022-08-01T15:14:28;28.60;91.90
8338;DHT22;4206;48.634;9.516;2022-08-01T15:17:17;28.30;92.20
8338;DHT22;4206;48.634;9.516;2022-08-01T15:19:44;28.00;93.00
8338;DHT22;4206;48.634;9.516;2022-08-01T15:22:10;28.00;94.10
8338;DHT22;4206;48.634;9.516;2022-08-01T15:24:36;27.60;96.80
8338;DHT22;4206;48.634;9.516;2022-08-01T15:27:01;27.20;99.90
8338;DHT22;4206;48.634;9.516;2022-08-01T15:29:27;26.70;99.90
8338;DHT22;4206;48.634;9.516;2022-08-01T15:31:53;26.00;99.90
8338;DHT22;4206;48.634;9.516;2022-08-01T15:34:18;25.50;99.90
8338;DHT22;4206;48.634;9.516;2022-08-01T15:39:11;24.10;99.90
8338;DHT22;4206;48.634;9.516;2022-08-01T15:41:36;22.60;99.90
8338;DHT22;4206;48.634;9.516;2022-08-01T15:44:02;21.60;99.90
8338;DHT22;4206;48.634;9.516;2022-08-01T15:46:28;21.00;99.90
8338;DHT22;4206;48.634;9.516;2022-08-01T15:48:54;20.80;99.90
8338;DHT22;4206;48.634;9.516;2022-08-01T15:51:20;20.70;99.90
8338;DHT22;4206;48.634;9.516;2022-08-01T15:53:45;20.60;99.90
8338;DHT22;4206;48.634;9.516;2022-08-01T15:56:12;20.70;99.90
8338;DHT22;4206;48.634;9.516;2022-08-01T15:58:38;20.60;99.90
8338;DHT22;4206;48.634;9.516;2022-08-01T16:01:04;20.60;99.90
8338;DHT22;4206;48.634;9.516;2022-08-01T16:03:29;20.40;99.90
8338;DHT22;4206;48.634;9.516;2022-08-01T16:05:55;20.40;99.90
8338;DHT22;4206;48.634;9.516;2022-08-01T16:08:21;20.30;99.90
8338;DHT22;4206;48.634;9.516;2022-08-01T16:10:46;20.10;99.90
8338;DHT22;4206;48.634;9.516;2022-08-01T16:13:12;20.00;99.90
8338;DHT22;4206;48.634;9.516;2022-08-01T16:15:39;20.00;99.90
8338;DHT22;4206;48.634;9.516;2022-08-01T16:18:06;20.00;99.90
8338;DHT22;4206;48.634;9.516;2022-08-01T16:20:32;20.10;99.90
8338;DHT22;4206;48.634;9.516;2022-08-01T16:22:58;19.90;99.90
8338;DHT22;4206;48.634;9.516;2022-08-01T16:25:24;19.70;99.90
8338;DHT22;4206;48.634;9.516;2022-08-01T16:27:50;19.60;99.90
8338;DHT22;4206;48.634;9.516;2022-08-01T16:30:16;19.30;99.90
8338;DHT22;4206;48.634;9.516;2022-08-01T16:32:41;18.90;99.90
8338;DHT22;4206;48.634;9.516;2022-08-01T16:35:07;18.60;99.90
8338;DHT22;4206;48.634;9.516;2022-08-01T16:37:34;18.30;99.90
8338;DHT22;4206;48.634;9.516;2022-08-01T16:39:59;18.20;99.90
8338;DHT22;4206;48.634;9.516;2022-08-01T16:42:25;18.00;99.90
8338;DHT22;4206;48.634;9.516;2022-08-01T16:44:51;17.90;99.90
8338;DHT22;4206;48.634;9.516;2022-08-01T16:47:16;17.80;99.90
8338;DHT22;4206;48.634;9.516;2022-08-01T16:49:42;17.90;99.90